Crystal City, MO (63019)

3:01 AM CST on January 30, 2015 (GMT -0600)
APRSWXNET Pevely MO US | Change Station
CLOSE
Current Station
Personal Weather Station
Location: Pevely, MO
Elevation: 453 ft
Nearby Weather Stations
Active Advisory: Special Statement

Elev 453 ft 38.28 °N, 90.46 °W | Updated 33 minutes ago

Overcast
Overcast
34 °F
Feels Like 34 °F
N
3
Wind Variable Wind from WNW
Gusts 8.0 mph

Today
High -- | Low -- °F
--% Chance of Precip.
Yesterday
High -- | Low -- °F
Precip. -- in
7:08 AM 5:21 PM
Waxing Gibbous, 81% visible
Pressure 30.48 in
Visibility 10.0 miles
Clouds Overcast 2900 ft
Windchill 34 °F
Dew Point 25 °F
Humidity 69%
Rainfall 0.00 in
Snow Depth Not available.
UV 0 out of 12
Pollen 2.20 out of 12
Air Quality Not available.
Flu Activity Not available.
METAR KCPS 300853Z AUTO 31011KT 10SM OVC029 01/M04 A3047 RMK AO2 SLP321 T00061044 50010 TSNO

More Conditions Fewer Conditions

Pressure 30.48 in
Visibility 10.0 miles
Clouds Overcast 2900 ft
Windchill 34 °F
Dew Point 25 °F
Humidity 69%
Rainfall 0.00 in
Snow Depth Not available.
UV 0 out of 12
Pollen 2.20 out of 12
Air Quality Not available.
Flu Activity Not available.
METAR KCPS 300853Z AUTO 31011KT 10SM OVC029 01/M04 A3047 RMK AO2 SLP321 T00061044 50010 TSNO

More Conditions Fewer Conditions

10-Day Weather Forecast

Almanac

Astronomy

Jan. 30, 2015 Rise Set
Actual Time
Civil Twilight
Nautical Twilight
Astronomical Twilight
Moon
Length of Visible Light
Length of Day
Tomorrow will be .
, % of the Moon is Illuminated

Today's Extremes

State Highs State Lows

Community

WunderPhotos

Upload Photos

1,791,736 photos uploaded!

WunderBlogs® & News

Nearby

Air Quality

  Air Quality AQ Index Pollutant
Not available.

Snow Depth

Station Depth Elevation

Earthquake Activity

City Distance Mag. Time & Date
Minimum magnitude displayed is 2.5.

Coastal Water Temperatures

Place Temperature

Nearby Weather Stations